createdAt,value
2018-12-16T00:00:15.608Z,99.90
2018-12-16T00:02:43.300Z,99.90
2018-12-16T00:05:11.315Z,99.90
2018-12-16T00:07:39.041Z,99.90
2018-12-16T00:10:06.643Z,99.90
2018-12-16T00:12:34.181Z,99.90
2018-12-16T00:15:01.969Z,99.90
2018-12-16T00:17:29.505Z,99.90
2018-12-16T00:19:57.063Z,99.90
2018-12-16T00:22:29.852Z,99.90
2018-12-16T00:24:54.590Z,99.90
2018-12-16T00:27:22.637Z,99.90
2018-12-16T00:29:50.229Z,99.90
2018-12-16T00:32:17.764Z,99.90
2018-12-16T00:34:45.432Z,99.90
2018-12-16T00:37:13.199Z,99.90
2018-12-16T00:39:41.045Z,99.90
2018-12-16T00:42:08.582Z,99.90
2018-12-16T00:44:36.409Z,99.90
2018-12-16T00:47:04.059Z,99.90
2018-12-16T00:49:32.080Z,99.90
2018-12-16T00:51:59.965Z,99.90
2018-12-16T00:54:27.660Z,99.90
2018-12-16T00:56:55.189Z,99.90
2018-12-16T00:59:22.778Z,99.90
2018-12-16T01:01:50.310Z,99.90
2018-12-16T01:04:17.853Z,99.90
2018-12-16T01:06:45.453Z,99.90
2018-12-16T01:09:13.192Z,99.90
2018-12-16T01:11:40.732Z,99.90
2018-12-16T01:14:08.319Z,99.90
2018-12-16T01:16:35.868Z,99.90
2018-12-16T01:19:03.416Z,99.90
2018-12-16T01:21:30.982Z,99.90
2018-12-16T01:23:58.519Z,99.90
2018-12-16T01:26:26.057Z,99.90
2018-12-16T01:28:53.627Z,99.90
2018-12-16T01:31:21.331Z,99.90
2018-12-16T01:33:48.938Z,99.90
2018-12-16T01:36:16.527Z,99.90
2018-12-16T01:38:44.075Z,99.90
2018-12-16T01:41:11.636Z,99.90
2018-12-16T01:43:39.487Z,99.90
2018-12-16T01:46:07.092Z,99.90
2018-12-16T01:48:34.634Z,99.90
2018-12-16T01:51:02.254Z,99.90
2018-12-16T01:53:30.074Z,99.90
2018-12-16T01:55:57.623Z,99.90
2018-12-16T01:58:25.447Z,99.90
2018-12-16T02:00:52.987Z,99.90
2018-12-16T02:03:20.657Z,99.90
2018-12-16T02:05:48.551Z,99.90
2018-12-16T02:08:16.090Z,99.90
2018-12-16T02:10:43.946Z,99.90
2018-12-16T02:13:11.534Z,99.90
2018-12-16T02:15:39.069Z,99.90
2018-12-16T02:18:06.601Z,99.90
2018-12-16T02:20:34.283Z,99.90
2018-12-16T02:23:01.875Z,99.90
2018-12-16T02:25:29.425Z,99.90
2018-12-16T02:27:57.050Z,99.90
2018-12-16T02:30:28.733Z,99.90
2018-12-16T02:32:56.274Z,99.90
2018-12-16T02:35:23.846Z,99.90
2018-12-16T02:37:51.387Z,99.90
2018-12-16T02:40:19.015Z,99.90
2018-12-16T02:42:46.777Z,99.90
2018-12-16T02:45:14.325Z,99.90
2018-12-16T02:47:41.971Z,99.90
2018-12-16T02:50:09.552Z,99.90
2018-12-16T02:52:37.171Z,99.90
2018-12-16T02:55:04.712Z,99.90
2018-12-16T02:57:32.333Z,99.90
2018-12-16T02:59:59.880Z,99.90
2018-12-16T03:02:27.587Z,99.90
2018-12-16T03:04:55.161Z,99.90
2018-12-16T03:07:22.705Z,99.90
2018-12-16T03:09:50.248Z,99.90
2018-12-16T03:12:18.078Z,99.90
2018-12-16T03:14:45.614Z,99.90
2018-12-16T03:17:13.151Z,99.90
2018-12-16T03:19:40.723Z,99.90
2018-12-16T03:22:08.466Z,99.90
2018-12-16T03:24:36.002Z,99.90
2018-12-16T03:27:03.587Z,99.90
2018-12-16T03:29:31.134Z,99.90
2018-12-16T03:31:58.672Z,99.90
2018-12-16T03:34:26.262Z,99.90
2018-12-16T03:36:59.547Z,99.90
2018-12-16T03:39:27.121Z,99.90
2018-12-16T03:41:54.870Z,99.90
2018-12-16T03:44:22.410Z,99.90
2018-12-16T03:46:49.983Z,99.90
2018-12-16T03:49:17.522Z,99.90
2018-12-16T03:51:45.303Z,99.90
2018-12-16T03:54:12.955Z,99.90
2018-12-16T03:56:40.494Z,99.90
2018-12-16T03:59:15.982Z,99.90
2018-12-16T04:01:46.462Z,99.90
2018-12-16T04:04:14.313Z,99.90
2018-12-16T04:06:43.304Z,99.90
2018-12-16T04:09:11.210Z,99.90
2018-12-16T04:11:38.749Z,99.90
2018-12-16T04:14:06.407Z,99.90
2018-12-16T04:16:33.956Z,99.90
2018-12-16T04:19:01.498Z,99.90
2018-12-16T04:21:29.346Z,99.90
2018-12-16T04:23:56.883Z,99.90
2018-12-16T04:26:24.630Z,99.90
2018-12-16T04:28:52.282Z,99.90
2018-12-16T04:31:19.822Z,99.90
2018-12-16T04:33:47.365Z,99.90
2018-12-16T04:36:15.409Z,99.90
2018-12-16T04:38:43.012Z,99.90
2018-12-16T04:41:10.549Z,99.90
2018-12-16T04:43:38.195Z,99.90
2018-12-16T04:46:05.923Z,99.90
2018-12-16T04:48:33.461Z,99.90
2018-12-16T04:51:01.267Z,99.90
2018-12-16T04:53:35.896Z,99.90
2018-12-16T04:55:58.404Z,99.90
2018-12-16T04:58:25.974Z,99.90
2018-12-16T05:00:53.514Z,99.90
2018-12-16T05:03:21.049Z,99.90
2018-12-16T05:05:48.830Z,99.90
2018-12-16T05:08:16.375Z,99.90
2018-12-16T05:10:43.923Z,99.90
2018-12-16T05:13:11.506Z,99.90
2018-12-16T05:15:39.305Z,99.90
2018-12-16T05:18:06.938Z,99.90
2018-12-16T05:20:34.510Z,99.90
2018-12-16T05:23:02.085Z,99.90
2018-12-16T05:25:29.623Z,99.90
2018-12-16T05:27:57.196Z,99.90
2018-12-16T05:30:24.729Z,99.90
2018-12-16T05:32:52.273Z,99.90
2018-12-16T05:35:19.854Z,99.90
2018-12-16T05:37:47.391Z,99.90
2018-12-16T05:40:14.923Z,99.90
2018-12-16T05:42:42.498Z,99.90
2018-12-16T05:45:10.041Z,99.90
2018-12-16T05:47:37.677Z,99.90
2018-12-16T05:50:06.127Z,99.90
2018-12-16T05:52:33.670Z,99.90
2018-12-16T05:55:01.205Z,99.90
2018-12-16T05:57:28.850Z,99.90
2018-12-16T05:59:56.388Z,99.90
2018-12-16T06:02:23.933Z,99.90
2018-12-16T06:04:51.562Z,99.90
2018-12-16T06:07:19.102Z,99.90
2018-12-16T06:09:46.638Z,99.90
2018-12-16T06:12:14.250Z,99.90
2018-12-16T06:14:41.790Z,99.90
2018-12-16T06:17:09.581Z,99.90
2018-12-16T06:19:37.160Z,99.90
2018-12-16T06:22:04.698Z,99.90
2018-12-16T06:24:32.247Z,99.90
2018-12-16T06:26:59.810Z,99.90
2018-12-16T06:29:27.346Z,99.90
2018-12-16T06:31:55.354Z,99.90
2018-12-16T06:34:23.235Z,99.90
2018-12-16T06:36:50.782Z,99.90
2018-12-16T06:39:18.319Z,99.90
2018-12-16T06:41:46.271Z,99.90
2018-12-16T06:44:13.819Z,99.90
2018-12-16T06:46:41.425Z,99.90
2018-12-16T06:49:09.045Z,99.90
2018-12-16T06:51:36.646Z,99.90
2018-12-16T06:54:04.190Z,99.90
2018-12-16T06:56:31.797Z,99.90
2018-12-16T06:58:59.410Z,99.90
2018-12-16T07:01:26.949Z,99.90
2018-12-16T07:03:54.560Z,99.90
2018-12-16T07:06:22.202Z,99.90
2018-12-16T07:08:49.751Z,99.90
2018-12-16T07:11:17.342Z,99.90
2018-12-16T07:13:44.891Z,99.90
2018-12-16T07:16:12.436Z,99.90
2018-12-16T07:18:40.137Z,99.90
2018-12-16T07:21:07.723Z,99.90
2018-12-16T07:23:35.275Z,99.90
2018-12-16T07:26:03.066Z,99.90
2018-12-16T07:28:30.605Z,99.90
2018-12-16T07:30:58.182Z,99.90
2018-12-16T07:33:25.958Z,99.90
2018-12-16T07:35:53.506Z,99.90
2018-12-16T07:38:21.061Z,99.90
2018-12-16T07:40:48.644Z,99.90
2018-12-16T07:43:16.428Z,99.90
2018-12-16T07:45:44.374Z,99.90
2018-12-16T07:48:12.054Z,99.90
2018-12-16T07:50:39.782Z,99.90
2018-12-16T07:53:07.994Z,99.90
2018-12-16T07:55:35.733Z,99.90
2018-12-16T07:58:03.307Z,99.90
2018-12-16T08:00:30.842Z,99.90
2018-12-16T08:02:58.423Z,99.90
2018-12-16T08:05:26.044Z,99.90
2018-12-16T08:07:53.708Z,99.90
2018-12-16T08:10:21.434Z,99.90
2018-12-16T08:12:49.235Z,99.90
2018-12-16T08:15:17.280Z,99.90
2018-12-16T08:17:45.127Z,99.90
2018-12-16T08:20:12.754Z,99.90
2018-12-16T08:22:41.090Z,99.90
2018-12-16T08:25:08.680Z,99.90
2018-12-16T08:27:36.422Z,99.90
2018-12-16T08:30:05.918Z,99.90
2018-12-16T08:32:34.200Z,99.90
2018-12-16T08:35:02.272Z,99.90
2018-12-16T08:37:30.137Z,99.90
2018-12-16T08:39:57.907Z,99.90
2018-12-16T08:42:25.480Z,99.90
2018-12-16T08:44:53.045Z,99.90
2018-12-16T08:47:20.839Z,99.90
2018-12-16T08:49:48.381Z,99.90
2018-12-16T08:52:16.149Z,99.90
2018-12-16T08:54:43.738Z,99.90
2018-12-16T08:57:11.287Z,99.90
2018-12-16T08:59:39.496Z,99.90
2018-12-16T09:02:07.107Z,99.90
2018-12-16T09:04:34.655Z,99.90
2018-12-16T09:07:02.218Z,99.90
2018-12-16T09:09:30.378Z,99.90
2018-12-16T09:11:58.003Z,99.90
2018-12-16T09:14:25.591Z,99.90
2018-12-16T09:16:53.724Z,99.90
2018-12-16T09:19:21.512Z,99.90
2018-12-16T09:21:49.269Z,99.90
2018-12-16T09:24:16.860Z,99.90
2018-12-16T09:26:44.398Z,99.90
2018-12-16T09:29:12.050Z,99.90
2018-12-16T09:31:40.012Z,99.90
2018-12-16T09:34:07.571Z,99.90
2018-12-16T09:36:35.129Z,99.90
2018-12-16T09:39:02.726Z,99.90
2018-12-16T09:41:30.427Z,99.90
2018-12-16T09:43:57.972Z,99.90
2018-12-16T09:46:25.547Z,99.90
2018-12-16T09:48:54.033Z,99.90
2018-12-16T09:51:21.891Z,79.90
2018-12-16T09:53:49.779Z,71.90
2018-12-16T09:56:17.335Z,71.10
2018-12-16T09:58:44.879Z,73.90
2018-12-16T10:01:12.637Z,77.80
2018-12-16T10:03:40.627Z,66.50
2018-12-16T10:06:08.385Z,73.40
2018-12-16T10:08:36.151Z,69.30
2018-12-16T10:11:03.682Z,64.00
2018-12-16T10:13:31.535Z,58.00
2018-12-16T10:15:59.337Z,59.40
2018-12-16T10:18:26.875Z,56.80
2018-12-16T10:20:54.651Z,55.90
2018-12-16T10:23:22.567Z,55.20
2018-12-16T10:25:50.111Z,51.10
2018-12-16T10:28:17.945Z,50.50
2018-12-16T10:30:45.526Z,52.30
2018-12-16T10:33:13.068Z,51.10
2018-12-16T10:35:40.606Z,50.70
2018-12-16T10:38:08.603Z,48.70
2018-12-16T10:40:36.387Z,49.90
2018-12-16T10:43:04.196Z,53.40
2018-12-16T10:45:31.811Z,50.40
2018-12-16T10:47:59.420Z,48.80
2018-12-16T10:50:27.021Z,48.80
2018-12-16T10:52:54.599Z,48.50
2018-12-16T10:55:22.354Z,46.40
2018-12-16T10:57:49.889Z,47.80
2018-12-16T11:03:21.988Z,49.30
2018-12-16T11:05:49.572Z,50.00
2018-12-16T11:08:17.238Z,47.40
2018-12-16T11:10:44.937Z,48.80
2018-12-16T11:13:12.803Z,47.70
2018-12-16T11:15:40.672Z,49.60
2018-12-16T11:18:08.252Z,47.40
2018-12-16T11:20:35.889Z,46.20
2018-12-16T11:23:03.508Z,45.10
2018-12-16T11:25:31.215Z,44.30
2018-12-16T11:27:59.057Z,45.60
2018-12-16T11:30:26.867Z,45.40
2018-12-16T11:32:54.411Z,44.10
2018-12-16T11:35:22.264Z,44.90
2018-12-16T11:37:49.941Z,45.20
2018-12-16T11:40:17.500Z,41.10
2018-12-16T11:42:45.561Z,42.70
2018-12-16T11:45:13.612Z,46.40
2018-12-16T11:47:41.158Z,49.60
2018-12-16T11:50:08.983Z,47.90
2018-12-16T11:52:36.781Z,45.10
2018-12-16T11:55:04.576Z,45.00
2018-12-16T11:57:32.474Z,47.70
2018-12-16T12:00:00.365Z,54.70
2018-12-16T12:02:32.756Z,64.40
2018-12-16T12:04:58.097Z,54.80
2018-12-16T12:07:26.049Z,84.00
2018-12-16T12:09:53.917Z,99.90
2018-12-16T12:12:21.506Z,99.90
2018-12-16T12:14:49.677Z,99.90
2018-12-16T12:17:17.656Z,99.90
2018-12-16T12:19:45.586Z,99.90
2018-12-16T12:22:13.444Z,99.90
2018-12-16T12:24:41.478Z,99.90
2018-12-16T12:27:09.456Z,99.90
2018-12-16T12:29:37.414Z,99.90
2018-12-16T12:32:04.978Z,99.90
2018-12-16T12:34:33.189Z,99.90
2018-12-16T12:37:01.046Z,99.90
2018-12-16T12:39:29.108Z,99.90
2018-12-16T12:41:56.916Z,99.90
2018-12-16T12:44:25.054Z,99.90
2018-12-16T12:46:54.008Z,99.90
2018-12-16T12:49:21.592Z,99.90
2018-12-16T12:51:49.155Z,99.90
2018-12-16T12:54:17.182Z,99.90
2018-12-16T12:56:45.323Z,99.90
2018-12-16T12:59:13.232Z,99.90
2018-12-16T13:01:41.075Z,99.90
2018-12-16T13:06:01.136Z,99.90
2018-12-16T13:08:28.716Z,99.90
2018-12-16T13:10:56.972Z,99.90
2018-12-16T13:13:25.302Z,99.90
2018-12-16T13:15:53.046Z,99.90
2018-12-16T13:18:20.974Z,99.90
2018-12-16T13:20:49.108Z,99.90
2018-12-16T13:23:17.229Z,99.90
2018-12-16T13:25:56.705Z,99.90
2018-12-16T13:28:24.535Z,99.90
2018-12-16T13:30:52.083Z,99.90
2018-12-16T13:33:19.742Z,99.90
2018-12-16T13:35:47.707Z,99.90
2018-12-16T13:38:15.700Z,99.90
2018-12-16T13:40:43.253Z,99.90
2018-12-16T13:43:11.034Z,99.90
2018-12-16T13:45:38.758Z,99.90
2018-12-16T13:48:06.316Z,99.90
2018-12-16T13:50:34.281Z,99.90
2018-12-16T13:53:01.949Z,99.90
2018-12-16T13:55:29.630Z,99.90
2018-12-16T13:57:57.925Z,99.90
2018-12-16T14:00:25.740Z,99.90
2018-12-16T14:02:53.438Z,99.90
2018-12-16T14:05:21.383Z,99.90
2018-12-16T14:07:48.942Z,99.90
2018-12-16T14:10:16.513Z,99.90
2018-12-16T14:12:44.865Z,99.90
2018-12-16T14:15:12.439Z,99.90
2018-12-16T14:17:40.197Z,99.90
2018-12-16T14:20:08.891Z,99.90
2018-12-16T14:22:36.431Z,99.90
2018-12-16T14:25:04.296Z,99.90
2018-12-16T14:27:32.271Z,99.90
2018-12-16T14:29:59.858Z,99.90
2018-12-16T14:32:27.489Z,99.90
2018-12-16T14:34:55.252Z,99.90
2018-12-16T14:37:23.212Z,99.90
2018-12-16T14:39:50.886Z,99.90
2018-12-16T14:42:18.490Z,99.90
2018-12-16T14:44:46.059Z,99.90
2018-12-16T14:47:13.616Z,99.90
2018-12-16T14:49:41.197Z,99.90
2018-12-16T14:52:08.752Z,99.90
2018-12-16T14:54:38.331Z,99.90
2018-12-16T14:57:06.349Z,99.90
2018-12-16T14:59:34.100Z,99.90
2018-12-16T15:02:01.674Z,99.90
2018-12-16T15:04:29.282Z,99.90
2018-12-16T15:06:56.853Z,99.90
2018-12-16T15:09:24.954Z,99.90
2018-12-16T15:11:52.724Z,99.90
2018-12-16T15:14:20.490Z,99.90
2018-12-16T15:16:48.066Z,99.90
2018-12-16T15:19:16.610Z,99.90
2018-12-16T15:21:44.348Z,99.90
2018-12-16T15:24:12.782Z,99.90
2018-12-16T15:26:40.478Z,99.90
2018-12-16T15:29:08.277Z,99.90
2018-12-16T15:31:35.989Z,99.90
2018-12-16T15:34:04.826Z,99.90
2018-12-16T15:36:32.382Z,99.90
2018-12-16T15:38:59.925Z,99.90
2018-12-16T15:41:28.048Z,99.90
2018-12-16T15:43:55.671Z,99.90
2018-12-16T15:46:23.229Z,99.90
2018-12-16T15:48:50.995Z,99.90
2018-12-16T15:51:18.556Z,99.90
2018-12-16T15:53:46.725Z,99.90
2018-12-16T15:56:14.346Z,99.90
2018-12-16T15:58:41.899Z,99.90
2018-12-16T16:01:09.455Z,99.90
2018-12-16T16:03:37.052Z,99.90
2018-12-16T16:06:04.824Z,99.90
2018-12-16T16:08:32.378Z,99.90
2018-12-16T16:11:00.127Z,99.90
2018-12-16T16:13:28.009Z,99.90
2018-12-16T16:15:55.672Z,99.90
2018-12-16T16:18:23.740Z,99.90
2018-12-16T16:20:51.588Z,99.90
2018-12-16T16:23:19.143Z,99.90
2018-12-16T16:25:46.928Z,99.90
2018-12-16T16:28:14.500Z,99.90
2018-12-16T16:30:42.374Z,99.90
2018-12-16T16:33:10.199Z,99.90
2018-12-16T16:35:37.967Z,99.90
2018-12-16T16:38:05.963Z,99.90
2018-12-16T16:40:33.857Z,99.90
2018-12-16T16:43:01.684Z,99.90
2018-12-16T16:45:29.418Z,99.90
2018-12-16T16:47:58.305Z,99.90
2018-12-16T16:50:25.867Z,99.90
2018-12-16T16:52:53.630Z,99.90
2018-12-16T16:55:21.220Z,99.90
2018-12-16T16:57:48.779Z,99.90
2018-12-16T17:00:16.354Z,99.90
2018-12-16T17:02:43.954Z,99.90
2018-12-16T17:05:11.513Z,99.90
2018-12-16T17:07:39.186Z,99.90
2018-12-16T17:10:07.299Z,99.90
2018-12-16T17:12:34.854Z,99.90
2018-12-16T17:15:02.415Z,99.90
2018-12-16T17:17:30.007Z,99.90
2018-12-16T17:19:58.519Z,99.90
2018-12-16T17:22:26.161Z,99.90
2018-12-16T17:24:53.774Z,99.90
2018-12-16T17:27:22.228Z,99.90
2018-12-16T17:29:49.793Z,99.90
2018-12-16T17:32:18.365Z,99.90
2018-12-16T17:34:46.858Z,99.90
2018-12-16T17:37:14.768Z,99.90
2018-12-16T17:39:42.851Z,99.90
2018-12-16T17:42:10.405Z,99.90
2018-12-16T17:44:38.101Z,99.90
2018-12-16T17:47:05.773Z,99.90
2018-12-16T17:49:33.390Z,99.90
2018-12-16T17:52:01.291Z,99.90
2018-12-16T17:54:28.890Z,99.90
2018-12-16T17:56:56.839Z,99.90
2018-12-16T17:59:24.381Z,99.90
2018-12-16T18:01:53.266Z,99.90
2018-12-16T18:04:21.655Z,99.90
2018-12-16T18:06:49.315Z,99.90
2018-12-16T18:09:17.068Z,99.90
2018-12-16T18:11:44.728Z,99.90
2018-12-16T18:14:12.319Z,99.90
2018-12-16T18:16:39.934Z,99.90
2018-12-16T18:19:07.544Z,99.90
2018-12-16T18:21:36.086Z,99.90
2018-12-16T18:24:04.075Z,99.90
2018-12-16T18:26:31.658Z,99.90
2018-12-16T18:28:59.210Z,99.90
2018-12-16T18:31:27.067Z,99.90
2018-12-16T18:33:56.067Z,99.90
2018-12-16T18:36:23.687Z,99.90
2018-12-16T18:38:51.289Z,99.90
2018-12-16T18:41:19.114Z,99.90
2018-12-16T18:43:46.702Z,99.90
2018-12-16T18:46:15.123Z,99.90
2018-12-16T18:48:43.023Z,99.90
2018-12-16T18:51:10.629Z,99.90
2018-12-16T18:53:38.308Z,99.90
2018-12-16T18:56:05.998Z,99.90
2018-12-16T18:58:33.667Z,99.90
2018-12-16T19:01:01.830Z,99.90
2018-12-16T19:03:29.428Z,99.90
2018-12-16T19:05:57.005Z,99.90
2018-12-16T19:08:24.608Z,99.90
2018-12-16T19:10:52.376Z,99.90
2018-12-16T19:13:19.966Z,99.90
2018-12-16T19:15:47.994Z,99.90
2018-12-16T19:18:15.774Z,99.90
2018-12-16T19:20:43.520Z,99.90
2018-12-16T19:23:11.194Z,99.90
2018-12-16T19:25:39.764Z,99.90
2018-12-16T19:28:07.346Z,99.90
2018-12-16T19:30:35.151Z,99.90
2018-12-16T19:33:02.707Z,99.90
2018-12-16T19:35:30.637Z,99.90
2018-12-16T19:37:58.384Z,99.90
2018-12-16T19:40:26.147Z,99.90
2018-12-16T19:42:53.695Z,99.90
2018-12-16T19:45:21.361Z,99.90
2018-12-16T19:47:49.623Z,99.90
2018-12-16T19:50:17.407Z,99.90
2018-12-16T19:52:45.271Z,99.90
2018-12-16T19:55:13.849Z,99.90
2018-12-16T19:57:41.447Z,99.90
2018-12-16T20:00:09.583Z,99.90
2018-12-16T20:02:37.155Z,99.90
2018-12-16T20:05:08.051Z,99.90
2018-12-16T20:07:35.817Z,99.90
2018-12-16T20:10:04.857Z,99.90
2018-12-16T20:12:32.447Z,99.90
2018-12-16T20:15:00.249Z,99.90
2018-12-16T20:17:27.804Z,99.90
2018-12-16T20:19:56.390Z,99.90
2018-12-16T20:22:24.039Z,99.90
2018-12-16T20:24:51.821Z,99.90
2018-12-16T20:27:19.581Z,99.90
2018-12-16T20:29:47.451Z,99.90
2018-12-16T20:32:15.022Z,99.90
2018-12-16T20:34:42.758Z,99.90
2018-12-16T20:37:10.364Z,99.90
2018-12-16T20:39:37.993Z,99.90
2018-12-16T20:42:05.646Z,99.90
2018-12-16T20:44:33.535Z,99.90
2018-12-16T20:47:01.098Z,99.90
2018-12-16T20:49:28.660Z,99.90
2018-12-16T20:51:56.996Z,99.90
2018-12-16T20:54:24.758Z,99.90
2018-12-16T20:56:52.438Z,99.90
2018-12-16T20:59:21.389Z,99.90
2018-12-16T21:01:49.282Z,99.90
2018-12-16T21:04:17.064Z,99.90
2018-12-16T21:06:44.684Z,99.90
2018-12-16T21:09:12.424Z,99.90
2018-12-16T21:11:45.890Z,99.90
2018-12-16T21:14:19.259Z,99.90
2018-12-16T21:19:56.279Z,99.90
2018-12-16T21:22:24.122Z,99.90
2018-12-16T21:24:51.716Z,99.90
2018-12-16T21:27:25.806Z,99.90
2018-12-16T21:29:49.618Z,99.90
2018-12-16T21:32:17.175Z,99.90
2018-12-16T21:34:44.727Z,99.90
2018-12-16T21:37:12.340Z,99.90
2018-12-16T21:39:39.898Z,99.90
2018-12-16T21:42:07.654Z,99.90
2018-12-16T21:44:35.335Z,99.90
2018-12-16T21:47:02.917Z,99.90
2018-12-16T21:49:30.467Z,99.90
2018-12-16T21:51:58.070Z,99.90
2018-12-16T21:54:25.677Z,99.90
2018-12-16T21:56:53.233Z,99.90
2018-12-16T21:59:20.846Z,99.90
2018-12-16T22:01:48.397Z,99.90
2018-12-16T22:04:15.962Z,99.90
2018-12-16T22:06:43.607Z,99.90
2018-12-16T22:09:11.951Z,99.90
2018-12-16T22:11:39.742Z,99.90
2018-12-16T22:14:07.439Z,99.90
2018-12-16T22:16:35.028Z,99.90
2018-12-16T22:19:02.664Z,99.90
2018-12-16T22:21:30.255Z,99.90
2018-12-16T22:23:57.819Z,99.90
2018-12-16T22:26:25.366Z,99.90
2018-12-16T22:28:53.146Z,99.90
2018-12-16T22:31:20.690Z,99.90
2018-12-16T22:33:48.235Z,99.90
2018-12-16T22:36:15.876Z,99.90
2018-12-16T22:38:43.457Z,99.90
2018-12-16T22:41:11.010Z,99.90
2018-12-16T22:43:39.166Z,99.90
2018-12-16T22:46:06.730Z,99.90
2018-12-16T22:48:34.531Z,99.90
2018-12-16T22:51:02.114Z,99.90
2018-12-16T22:53:29.679Z,99.90
2018-12-16T22:55:57.346Z,99.90
2018-12-16T22:58:24.948Z,99.90
2018-12-16T23:00:58.114Z,99.90
2018-12-16T23:03:26.134Z,99.90
2018-12-16T23:05:53.687Z,99.90
2018-12-16T23:08:21.235Z,99.90
2018-12-16T23:10:48.827Z,99.90
2018-12-16T23:13:16.379Z,99.90
2018-12-16T23:15:43.932Z,99.90
2018-12-16T23:18:11.518Z,99.90
2018-12-16T23:20:39.078Z,99.90
2018-12-16T23:23:06.630Z,99.90
2018-12-16T23:25:34.229Z,99.90
2018-12-16T23:28:02.054Z,99.90
2018-12-16T23:30:29.737Z,99.90
2018-12-16T23:32:57.336Z,99.90
2018-12-16T23:35:24.926Z,99.90
2018-12-16T23:37:52.493Z,99.90
2018-12-16T23:40:20.090Z,99.90
2018-12-16T23:42:47.638Z,99.90
2018-12-16T23:45:15.204Z,99.90
2018-12-16T23:47:42.794Z,99.90
2018-12-16T23:50:10.366Z,99.90
2018-12-16T23:52:37.915Z,99.90
2018-12-16T23:55:05.563Z,99.90
2018-12-16T23:57:33.122Z,99.90
